createdAt,value
2022-11-13T00:00:49.984Z,5.59
2022-11-13T00:03:36.468Z,5.57
2022-11-13T00:06:22.501Z,5.59
2022-11-13T00:09:12.077Z,5.56
2022-11-13T00:11:58.487Z,5.55
2022-11-13T00:14:45.097Z,5.55
2022-11-13T00:17:31.381Z,5.54
2022-11-13T00:20:19.227Z,5.55
2022-11-13T00:23:05.588Z,5.53
2022-11-13T00:25:51.705Z,5.51
2022-11-13T00:28:38.463Z,5.50
2022-11-13T00:31:24.544Z,5.49
2022-11-13T00:34:33.573Z,5.45
2022-11-13T00:37:17.475Z,5.45
2022-11-13T00:40:04.852Z,5.43
2022-11-13T00:42:50.945Z,5.40
2022-11-13T00:45:37.139Z,5.39
2022-11-13T00:48:23.861Z,5.40
2022-11-13T00:51:10.414Z,5.36
2022-11-13T00:53:56.491Z,5.34
2022-11-13T00:56:42.751Z,5.32
2022-11-13T00:59:28.878Z,5.29
2022-11-13T01:02:15.294Z,5.28
2022-11-13T01:05:02.347Z,5.30
2022-11-13T01:07:48.784Z,5.25
2022-11-13T01:10:47.606Z,5.27
2022-11-13T01:13:39.077Z,5.26
2022-11-13T01:16:27.715Z,5.26
2022-11-13T01:19:14.937Z,5.24
2022-11-13T01:22:01.095Z,5.22
2022-11-13T01:24:47.354Z,5.19
2022-11-13T01:27:37.092Z,5.19
2022-11-13T01:30:23.918Z,5.17
2022-11-13T01:33:09.862Z,5.18
2022-11-13T01:36:02.568Z,5.11
2022-11-13T01:38:49.160Z,5.14
2022-11-13T01:41:35.905Z,5.08
2022-11-13T01:44:22.018Z,5.05
2022-11-13T01:47:09.103Z,5.02
2022-11-13T01:49:58.934Z,5.00
2022-11-13T01:52:44.918Z,5.00
2022-11-13T01:55:31.136Z,4.99
2022-11-13T01:58:17.310Z,4.98
2022-11-13T02:01:04.245Z,4.95
2022-11-13T02:03:50.451Z,4.91
2022-11-13T02:07:00.557Z,4.89
2022-11-13T02:09:54.831Z,4.87
2022-11-13T02:12:46.710Z,4.81
2022-11-13T02:15:35.151Z,4.79
2022-11-13T02:18:23.040Z,4.78
2022-11-13T02:21:17.779Z,4.75
2022-11-13T02:24:32.397Z,4.74
2022-11-13T02:27:34.307Z,4.69
2022-11-13T02:30:27.406Z,4.66
2022-11-13T02:33:29.578Z,4.63
2022-11-13T02:36:17.074Z,4.62
2022-11-13T02:39:10.455Z,4.59
2022-11-13T02:41:56.883Z,4.58
2022-11-13T02:44:42.855Z,4.55
2022-11-13T02:47:29.529Z,4.51
2022-11-13T02:50:17.488Z,4.48
2022-11-13T02:53:04.661Z,4.44
2022-11-13T02:55:51.103Z,4.45
2022-11-13T02:58:37.534Z,4.43
2022-11-13T03:01:23.611Z,4.39
2022-11-13T03:04:09.907Z,4.36
2022-11-13T03:06:56.077Z,4.35
2022-11-13T03:09:42.098Z,4.33
2022-11-13T03:12:28.683Z,4.29
2022-11-13T03:15:14.850Z,4.30
2022-11-13T03:18:06.011Z,4.26
2022-11-13T03:20:53.974Z,4.26
2022-11-13T03:23:42.302Z,4.20
2022-11-13T03:26:28.640Z,4.19
2022-11-13T03:29:15.325Z,4.17
2022-11-13T03:32:03.210Z,4.15
2022-11-13T03:34:49.370Z,4.16
2022-11-13T03:37:35.699Z,4.13
2022-11-13T03:40:22.114Z,4.13
2022-11-13T03:43:08.207Z,4.12
2022-11-13T03:45:54.097Z,4.12
2022-11-13T03:48:40.611Z,4.13
2022-11-13T03:51:27.289Z,4.11
2022-11-13T03:54:13.337Z,4.07
2022-11-13T03:56:59.516Z,4.06
2022-11-13T03:59:45.587Z,4.09
2022-11-13T04:02:31.854Z,4.08
2022-11-13T04:05:22.616Z,4.09
2022-11-13T04:08:10.312Z,4.07
2022-11-13T04:11:04.979Z,4.05
2022-11-13T04:13:50.984Z,4.03
2022-11-13T04:16:37.203Z,4.01
2022-11-13T04:19:23.392Z,4.04
2022-11-13T04:22:10.322Z,3.98
2022-11-13T04:24:56.694Z,4.00
2022-11-13T04:27:42.844Z,4.00
2022-11-13T04:30:28.845Z,3.99
2022-11-13T04:33:15.101Z,3.99
2022-11-13T04:36:02.556Z,3.99
2022-11-13T04:38:48.711Z,3.97
2022-11-13T04:41:55.509Z,3.98
2022-11-13T04:44:41.883Z,3.99
2022-11-13T04:47:28.079Z,3.98
2022-11-13T04:50:15.875Z,3.99
2022-11-13T04:53:01.923Z,3.99
2022-11-13T04:55:48.311Z,3.95
2022-11-13T04:58:34.412Z,3.96
2022-11-13T05:01:20.743Z,3.95
2022-11-13T05:04:07.189Z,3.90
2022-11-13T05:06:53.329Z,3.90
2022-11-13T05:09:39.390Z,3.87
2022-11-13T05:12:25.352Z,3.88
2022-11-13T05:15:11.274Z,3.84
2022-11-13T05:17:57.506Z,3.81
2022-11-13T05:20:43.565Z,3.77
2022-11-13T05:23:29.924Z,3.76
2022-11-13T05:26:16.459Z,3.76
2022-11-13T05:29:02.490Z,3.76
2022-11-13T05:31:49.184Z,3.72
2022-11-13T05:34:35.567Z,3.71
2022-11-13T05:37:21.947Z,3.68
2022-11-13T05:40:08.750Z,3.70
2022-11-13T05:42:55.604Z,3.67
2022-11-13T05:45:41.820Z,3.69
2022-11-13T05:48:29.342Z,3.72
2022-11-13T05:51:22.357Z,3.70
2022-11-13T05:54:09.297Z,3.67
2022-11-13T05:56:55.667Z,3.69
2022-11-13T05:59:41.638Z,3.72
2022-11-13T06:02:27.791Z,3.71
2022-11-13T06:05:13.889Z,3.72
2022-11-13T06:08:00.288Z,3.71
2022-11-13T06:10:46.362Z,3.67
2022-11-13T06:13:32.609Z,3.67
2022-11-13T06:16:38.529Z,3.65
2022-11-13T06:19:24.811Z,3.61
2022-11-13T06:22:11.061Z,3.60
2022-11-13T06:24:57.171Z,3.59
2022-11-13T06:27:43.483Z,3.56
2022-11-13T06:30:29.426Z,3.54
2022-11-13T06:33:15.603Z,3.51
2022-11-13T06:36:07.447Z,3.47
2022-11-13T06:38:54.183Z,3.44
2022-11-13T06:41:40.553Z,3.43
2022-11-13T06:44:26.931Z,3.40
2022-11-13T06:47:13.440Z,3.37
2022-11-13T06:49:59.442Z,3.35
2022-11-13T06:52:45.591Z,3.32
2022-11-13T06:55:31.623Z,3.30
2022-11-13T06:58:17.858Z,3.29
2022-11-13T07:01:13.603Z,3.26
2022-11-13T07:03:59.676Z,3.23
2022-11-13T07:06:45.981Z,3.25
2022-11-13T07:09:32.198Z,3.21
2022-11-13T07:12:18.500Z,3.21
2022-11-13T07:15:05.042Z,3.20
2022-11-13T07:17:51.352Z,3.19
2022-11-13T07:20:37.633Z,3.20
2022-11-13T07:23:24.492Z,3.20
2022-11-13T07:26:11.806Z,3.18
2022-11-13T07:28:58.162Z,3.20
2022-11-13T07:31:44.446Z,3.22
2022-11-13T07:34:30.580Z,3.21
2022-11-13T07:37:16.723Z,3.25
2022-11-13T07:40:03.200Z,3.28
2022-11-13T07:42:56.193Z,3.30
2022-11-13T07:45:42.516Z,3.29
2022-11-13T07:48:29.340Z,3.34
2022-11-13T07:51:15.474Z,3.37
2022-11-13T07:54:01.497Z,3.41
2022-11-13T07:56:47.592Z,3.45
2022-11-13T07:59:33.470Z,3.44
2022-11-13T08:02:23.593Z,3.49
2022-11-13T08:05:12.593Z,3.53
2022-11-13T08:07:58.962Z,3.57
2022-11-13T08:10:45.008Z,3.62
2022-11-13T08:13:31.282Z,3.64
2022-11-13T08:16:17.590Z,3.70
2022-11-13T08:19:04.541Z,3.73
2022-11-13T08:21:50.795Z,3.78
2022-11-13T08:24:37.185Z,3.84
2022-11-13T08:27:23.751Z,3.88
2022-11-13T08:30:10.708Z,3.94
2022-11-13T08:32:56.843Z,3.98
2022-11-13T08:35:42.966Z,4.02
2022-11-13T08:38:29.316Z,4.08
2022-11-13T08:41:15.637Z,4.13
2022-11-13T08:44:02.128Z,4.19
2022-11-13T08:46:48.161Z,4.31
2022-11-13T08:49:34.614Z,4.51
2022-11-13T08:52:21.484Z,4.61
2022-11-13T08:55:08.124Z,4.70
2022-11-13T08:57:54.651Z,4.78
2022-11-13T09:00:41.515Z,4.86
2022-11-13T09:03:27.992Z,4.96
2022-11-13T09:06:14.363Z,5.05
2022-11-13T09:09:00.473Z,5.12
2022-11-13T09:11:46.870Z,5.24
2022-11-13T09:14:33.127Z,5.34
2022-11-13T09:17:19.566Z,5.42
2022-11-13T09:20:13.550Z,5.53
2022-11-13T09:23:06.441Z,5.75
2022-11-13T09:25:53.000Z,5.84
2022-11-13T09:28:39.349Z,6.06
2022-11-13T09:31:25.422Z,6.34
2022-11-13T09:34:11.520Z,6.61
2022-11-13T09:36:57.436Z,6.88
2022-11-13T09:39:43.515Z,7.27
2022-11-13T09:42:32.405Z,7.62
2022-11-13T09:45:18.525Z,8.06
2022-11-13T09:48:39.021Z,8.48
2022-11-13T09:51:36.346Z,8.90
2022-11-13T09:54:23.195Z,9.30
2022-11-13T09:57:35.831Z,9.71
2022-11-13T10:00:23.082Z,9.96
2022-11-13T10:04:03.319Z,10.21
2022-11-13T10:07:31.130Z,10.51
2022-11-13T10:10:56.103Z,10.92
2022-11-13T10:13:49.912Z,11.14
2022-11-13T10:17:01.805Z,11.41
2022-11-13T10:20:24.661Z,11.78
2022-11-13T10:23:30.935Z,12.37
2022-11-13T10:26:21.288Z,12.88
2022-11-13T10:29:19.638Z,13.45
2022-11-13T10:32:24.379Z,13.94
2022-11-13T10:35:28.135Z,14.35
2022-11-13T10:38:32.554Z,14.81
2022-11-13T10:41:22.131Z,15.02
2022-11-13T10:44:34.255Z,15.17
2022-11-13T10:47:49.047Z,15.26
2022-11-13T10:50:32.503Z,15.17
2022-11-13T10:53:20.153Z,15.32
2022-11-13T10:56:34.855Z,15.32
2022-11-13T10:59:21.264Z,15.43
2022-11-13T11:02:24.473Z,15.41
2022-11-13T11:05:24.005Z,15.34
2022-11-13T11:08:11.366Z,14.90
2022-11-13T11:11:41.709Z,14.71
2022-11-13T11:14:39.886Z,14.51
2022-11-13T11:17:56.633Z,14.20
2022-11-13T11:20:51.391Z,13.98
2022-11-13T11:23:58.162Z,13.59
2022-11-13T11:27:18.852Z,13.36
2022-11-13T11:30:20.903Z,13.30
2022-11-13T11:33:20.204Z,13.18
2022-11-13T11:36:33.507Z,13.13
2022-11-13T11:39:40.999Z,13.04
2022-11-13T11:43:00.868Z,13.01
2022-11-13T11:45:48.010Z,12.93
2022-11-13T11:48:34.962Z,12.89
2022-11-13T11:51:35.105Z,12.99
2022-11-13T11:54:54.556Z,12.96
2022-11-13T11:58:40.754Z,12.99
2022-11-13T12:01:54.092Z,13.09
2022-11-13T12:04:58.099Z,13.00
2022-11-13T12:08:28.276Z,13.00
2022-11-13T12:11:35.422Z,13.07
2022-11-13T12:14:35.511Z,13.03
2022-11-13T12:18:10.269Z,13.14
2022-11-13T12:21:30.314Z,13.12
2022-11-13T12:24:51.187Z,13.11
2022-11-13T12:27:51.190Z,13.15
2022-11-13T12:30:58.266Z,13.18
2022-11-13T12:33:55.700Z,13.20
2022-11-13T12:36:47.130Z,13.18
2022-11-13T12:40:07.313Z,13.23
2022-11-13T12:43:35.854Z,13.21
2022-11-13T12:46:22.354Z,13.22
2022-11-13T12:49:36.557Z,13.26
2022-11-13T12:52:24.400Z,13.30
2022-11-13T12:55:35.299Z,13.34
2022-11-13T12:58:27.379Z,13.40
2022-11-13T13:01:19.496Z,13.37
2022-11-13T13:04:27.648Z,13.43
2022-11-13T13:07:39.586Z,13.35
2022-11-13T13:11:06.199Z,13.38
2022-11-13T13:14:46.294Z,13.37
2022-11-13T13:17:32.374Z,13.39
2022-11-13T13:20:18.781Z,13.37
2022-11-13T13:23:08.761Z,13.43
2022-11-13T13:26:13.455Z,13.42
2022-11-13T13:29:23.363Z,13.43
2022-11-13T13:32:45.595Z,13.43
2022-11-13T13:35:46.873Z,13.36
2022-11-13T13:38:51.934Z,13.41
2022-11-13T13:42:25.562Z,13.40
2022-11-13T13:45:36.938Z,13.40
2022-11-13T13:48:28.511Z,13.49
2022-11-13T13:51:34.377Z,13.48
2022-11-13T13:54:26.494Z,13.45
2022-11-13T13:57:16.954Z,13.45
2022-11-13T14:00:03.837Z,13.44
2022-11-13T14:02:52.692Z,13.41
2022-11-13T14:05:39.161Z,13.41
2022-11-13T14:08:27.831Z,13.41
2022-11-13T14:11:29.628Z,13.45
2022-11-13T14:14:22.508Z,13.44
2022-11-13T14:17:11.682Z,13.49
2022-11-13T14:20:00.907Z,13.49
2022-11-13T14:22:56.558Z,13.46
2022-11-13T14:25:44.404Z,13.44
2022-11-13T14:28:34.386Z,13.40
2022-11-13T14:31:25.530Z,13.31
2022-11-13T14:34:21.181Z,13.25
2022-11-13T14:37:22.077Z,13.25
2022-11-13T14:40:23.060Z,13.18
2022-11-13T14:43:17.467Z,13.16
2022-11-13T14:46:27.096Z,13.05
2022-11-13T14:49:35.857Z,12.99
2022-11-13T14:52:25.215Z,12.89
2022-11-13T14:55:49.537Z,12.80
2022-11-13T14:58:40.120Z,12.73
2022-11-13T15:01:26.897Z,12.68
2022-11-13T15:04:13.125Z,12.60
2022-11-13T15:07:03.556Z,12.49
2022-11-13T15:10:09.460Z,12.40
2022-11-13T15:12:55.821Z,12.35
2022-11-13T15:15:42.579Z,12.28
2022-11-13T15:18:28.724Z,12.17
2022-11-13T15:21:15.511Z,12.07
2022-11-13T15:24:01.618Z,11.95
2022-11-13T15:26:47.891Z,11.85
2022-11-13T15:29:33.992Z,11.78
2022-11-13T15:32:20.094Z,11.67
2022-11-13T15:35:13.907Z,11.55
2022-11-13T15:37:59.927Z,11.46
2022-11-13T15:40:46.294Z,11.36
2022-11-13T15:43:32.430Z,11.27
2022-11-13T15:46:21.284Z,11.16
2022-11-13T15:49:07.665Z,11.06
2022-11-13T15:51:54.069Z,11.00
2022-11-13T15:54:40.380Z,10.89
2022-11-13T15:57:29.553Z,10.79
2022-11-13T16:00:24.873Z,10.70
2022-11-13T16:03:12.307Z,10.63
2022-11-13T16:06:00.146Z,10.59
2022-11-13T16:08:47.006Z,10.57
2022-11-13T16:11:34.854Z,10.56
2022-11-13T16:14:24.769Z,10.57
2022-11-13T16:17:20.130Z,10.59
2022-11-13T16:20:09.020Z,10.58
2022-11-13T16:22:55.101Z,10.58
2022-11-13T16:25:41.527Z,10.60
2022-11-13T16:28:29.401Z,10.58
2022-11-13T16:31:17.905Z,10.56
2022-11-13T16:34:04.856Z,10.52
2022-11-13T16:36:52.104Z,10.46
2022-11-13T16:39:38.423Z,10.39
2022-11-13T16:42:29.792Z,10.33
2022-11-13T16:45:17.468Z,10.24
2022-11-13T16:48:05.004Z,10.14
2022-11-13T16:50:51.190Z,10.05
2022-11-13T16:53:37.491Z,9.95
2022-11-13T16:56:30.721Z,9.81
2022-11-13T16:59:16.790Z,9.72
2022-11-13T17:02:03.215Z,9.64
2022-11-13T17:04:49.197Z,9.55
2022-11-13T17:07:35.678Z,9.47
2022-11-13T17:10:31.759Z,9.36
2022-11-13T17:13:18.721Z,9.28
2022-11-13T17:16:05.235Z,9.17
2022-11-13T17:18:53.160Z,9.09
2022-11-13T17:21:43.957Z,9.01
2022-11-13T17:24:30.849Z,8.93
2022-11-13T17:27:18.019Z,8.85
2022-11-13T17:30:04.927Z,8.78
2022-11-13T17:32:51.096Z,8.70
2022-11-13T17:35:37.402Z,8.59
2022-11-13T17:38:23.950Z,8.54
2022-11-13T17:41:13.355Z,8.45
2022-11-13T17:44:01.343Z,8.40
2022-11-13T17:46:48.359Z,8.33
2022-11-13T17:49:34.674Z,8.27
2022-11-13T17:52:20.908Z,8.21
2022-11-13T17:55:10.616Z,8.16
2022-11-13T17:58:00.364Z,8.05
2022-11-13T18:00:46.881Z,8.00
2022-11-13T18:03:32.963Z,7.96
2022-11-13T18:06:20.830Z,7.90
2022-11-13T18:09:07.021Z,7.84
2022-11-13T18:11:54.062Z,7.80
2022-11-13T18:14:40.146Z,7.74
2022-11-13T18:17:26.311Z,7.70
2022-11-13T18:20:12.501Z,7.66
2022-11-13T18:22:58.938Z,7.62
2022-11-13T18:25:45.233Z,7.56
2022-11-13T18:28:31.437Z,7.54
2022-11-13T18:31:19.976Z,7.45
2022-11-13T18:34:09.832Z,7.41
2022-11-13T18:36:56.092Z,7.36
2022-11-13T18:39:42.219Z,7.32
2022-11-13T18:42:29.061Z,7.26
2022-11-13T18:45:16.315Z,7.22
2022-11-13T18:48:02.434Z,7.18
2022-11-13T18:51:00.713Z,7.12
2022-11-13T18:53:49.322Z,7.08
2022-11-13T18:56:35.339Z,7.04
2022-11-13T18:59:21.783Z,7.03
2022-11-13T19:02:11.247Z,6.99
2022-11-13T19:04:57.688Z,6.94
2022-11-13T19:07:43.986Z,6.91
2022-11-13T19:10:30.367Z,6.89
2022-11-13T19:13:16.454Z,6.86
2022-11-13T19:16:14.637Z,6.81
2022-11-13T19:19:16.526Z,6.78
2022-11-13T19:22:02.965Z,6.74
2022-11-13T19:24:48.932Z,6.69
2022-11-13T19:27:35.075Z,6.65
2022-11-13T19:30:21.204Z,6.62
2022-11-13T19:33:07.240Z,6.57
2022-11-13T19:35:56.224Z,6.53
2022-11-13T19:38:44.066Z,6.49
2022-11-13T19:41:30.372Z,6.47
2022-11-13T19:44:16.780Z,6.44
2022-11-13T19:47:02.827Z,6.41
2022-11-13T19:49:49.063Z,6.38
2022-11-13T19:52:35.377Z,6.34
2022-11-13T19:55:21.392Z,6.30
2022-11-13T19:58:07.461Z,6.27
2022-11-13T20:00:53.662Z,6.27
2022-11-13T20:03:40.343Z,6.22
2022-11-13T20:06:28.246Z,6.19
2022-11-13T20:09:14.459Z,6.15
2022-11-13T20:12:00.459Z,6.13
2022-11-13T20:14:46.911Z,6.14
2022-11-13T20:17:33.137Z,6.10
2022-11-13T20:20:19.456Z,6.08
2022-11-13T20:23:05.563Z,6.06
2022-11-13T20:26:01.718Z,6.04
2022-11-13T20:28:47.889Z,6.00
2022-11-13T20:31:34.206Z,5.99
2022-11-13T20:34:20.217Z,5.95
2022-11-13T20:37:06.290Z,5.94
2022-11-13T20:39:52.312Z,5.92
2022-11-13T20:42:38.615Z,5.91
2022-11-13T20:45:24.847Z,5.86
2022-11-13T20:48:11.384Z,5.84
2022-11-13T20:50:57.560Z,5.81
2022-11-13T20:53:43.794Z,5.79
2022-11-13T20:56:29.882Z,5.76
2022-11-13T20:59:16.206Z,5.73
2022-11-13T21:02:02.579Z,5.72
2022-11-13T21:04:48.703Z,5.67
2022-11-13T21:07:34.751Z,5.66
2022-11-13T21:10:20.742Z,5.61
2022-11-13T21:13:06.921Z,5.59
2022-11-13T21:15:53.485Z,5.56
2022-11-13T21:18:39.849Z,5.53
2022-11-13T21:21:28.783Z,5.50
2022-11-13T21:24:14.883Z,5.47
2022-11-13T21:27:01.287Z,5.45
2022-11-13T21:29:47.299Z,5.45
2022-11-13T21:32:33.361Z,5.44
2022-11-13T21:35:22.692Z,5.39
2022-11-13T21:38:09.152Z,5.33
2022-11-13T21:41:21.377Z,5.35
2022-11-13T21:44:10.472Z,5.30
2022-11-13T21:46:56.700Z,5.28
2022-11-13T21:49:43.266Z,5.27
2022-11-13T21:52:30.249Z,5.22
2022-11-13T21:55:16.769Z,5.18
2022-11-13T21:58:02.730Z,5.18
2022-11-13T22:00:48.914Z,5.11
2022-11-13T22:03:35.198Z,5.10
2022-11-13T22:06:29.779Z,5.07
2022-11-13T22:09:25.218Z,5.05
2022-11-13T22:12:11.678Z,5.01
2022-11-13T22:14:58.020Z,4.98
2022-11-13T22:17:44.455Z,4.96
2022-11-13T22:20:30.504Z,4.93
2022-11-13T22:23:16.958Z,4.93
2022-11-13T22:26:30.502Z,4.95
2022-11-13T22:29:16.933Z,4.91
2022-11-13T22:32:03.088Z,4.93
2022-11-13T22:34:49.554Z,4.88
2022-11-13T22:37:35.489Z,4.89
2022-11-13T22:40:21.571Z,4.81
2022-11-13T22:43:07.550Z,4.83
2022-11-13T22:45:53.648Z,4.80
2022-11-13T22:48:41.502Z,4.79
2022-11-13T22:51:37.800Z,4.75
2022-11-13T22:54:24.239Z,4.75
2022-11-13T22:57:10.255Z,4.74
2022-11-13T22:59:56.451Z,4.73
2022-11-13T23:02:47.087Z,4.71
2022-11-13T23:05:36.306Z,4.69
2022-11-13T23:08:22.995Z,4.66
2022-11-13T23:11:21.348Z,4.64
2022-11-13T23:14:12.863Z,4.61
2022-11-13T23:16:59.200Z,4.62
2022-11-13T23:19:45.417Z,4.64
2022-11-13T23:22:31.731Z,4.65
2022-11-13T23:25:17.764Z,4.64
2022-11-13T23:28:04.355Z,4.66
2022-11-13T23:30:50.644Z,4.66
2022-11-13T23:33:37.987Z,4.70
2022-11-13T23:36:24.118Z,4.73
2022-11-13T23:39:10.466Z,4.74
2022-11-13T23:41:56.756Z,4.80
2022-11-13T23:44:42.870Z,4.82
2022-11-13T23:47:29.395Z,4.84
2022-11-13T23:50:15.407Z,4.91
2022-11-13T23:53:01.579Z,4.89
2022-11-13T23:55:47.848Z,4.91
2022-11-13T23:58:34.554Z,4.91
